sensor_id;sensor_type;location;lat;lon;timestamp;pressure;altitude;pressure_sealevel;temperature;humidity
75650;BME280;64245;51.282;22.494;2023-11-25T00:00:39;96788.81;;;-0.28;100.00
75650;BME280;64245;51.282;22.494;2023-11-25T00:03:27;96772.66;;;-0.44;100.00
75650;BME280;64245;51.282;22.494;2023-11-25T00:05:53;96790.34;;;-0.25;100.00
75650;BME280;64245;51.282;22.494;2023-11-25T00:08:20;96785.59;;;-0.31;100.00
75650;BME280;64245;51.282;22.494;2023-11-25T00:10:47;96797.72;;;-0.29;100.00
75650;BME280;64245;51.282;22.494;2023-11-25T00:13:13;96793.84;;;-0.25;100.00
75650;BME280;64245;51.282;22.494;2023-11-25T00:15:41;96792.13;;;-0.36;100.00
75650;BME280;64245;51.282;22.494;2023-11-25T00:18:06;96799.53;;;-0.29;100.00
75650;BME280;64245;51.282;22.494;2023-11-25T00:20:33;96800.38;;;-0.29;100.00
75650;BME280;64245;51.282;22.494;2023-11-25T00:23:02;96806.34;;;-0.27;100.00
75650;BME280;64245;51.282;22.494;2023-11-25T00:25:29;96806.78;;;-0.22;100.00
75650;BME280;64245;51.282;22.494;2023-11-25T00:27:55;96811.25;;;-0.22;100.00
75650;BME280;64245;51.282;22.494;2023-11-25T00:30:21;96811.66;;;-0.27;100.00
75650;BME280;64245;51.282;22.494;2023-11-25T00:32:47;96814.41;;;-0.28;100.00
75650;BME280;64245;51.282;22.494;2023-11-25T00:35:13;96823.50;;;-0.21;100.00
75650;BME280;64245;51.282;22.494;2023-11-25T00:37:39;96815.25;;;-0.28;100.00
75650;BME280;64245;51.282;22.494;2023-11-25T00:40:07;96813.31;;;-0.16;100.00
75650;BME280;64245;51.282;22.494;2023-11-25T00:42:38;96802.88;;;-0.27;100.00
75650;BME280;64245;51.282;22.494;2023-11-25T00:45:07;96823.47;;;-0.12;100.00
75650;BME280;64245;51.282;22.494;2023-11-25T00:47:33;96829.88;;;-0.14;100.00
75650;BME280;64245;51.282;22.494;2023-11-25T00:50:00;96828.06;;;-0.14;100.00
75650;BME280;64245;51.282;22.494;2023-11-25T00:52:26;96821.09;;;-0.15;100.00
75650;BME280;64245;51.282;22.494;2023-11-25T00:54:53;96815.53;;;-0.12;100.00
75650;BME280;64245;51.282;22.494;2023-11-25T00:57:18;96822.06;;;-0.16;100.00
75650;BME280;64245;51.282;22.494;2023-11-25T00:59:44;96820.00;;;-0.22;100.00
75650;BME280;64245;51.282;22.494;2023-11-25T01:02:10;96817.75;;;-0.17;100.00
75650;BME280;64245;51.282;22.494;2023-11-25T01:04:39;96823.47;;;-0.12;100.00
75650;BME280;64245;51.282;22.494;2023-11-25T01:07:05;96811.25;;;-0.22;100.00
75650;BME280;64245;51.282;22.494;2023-11-25T01:09:31;96821.81;;;-0.13;100.00
75650;BME280;64245;51.282;22.494;2023-11-25T01:11:57;96825.84;;;-0.09;100.00
75650;BME280;64245;51.282;22.494;2023-11-25T01:14:23;96813.88;;;-0.13;100.00
75650;BME280;64245;51.282;22.494;2023-11-25T01:16:52;96814.00;;;-0.14;100.00
75650;BME280;64245;51.282;22.494;2023-11-25T01:19:18;96812.34;;;-0.06;100.00
75650;BME280;64245;51.282;22.494;2023-11-25T01:21:44;96812.47;;;-0.17;100.00
75650;BME280;64245;51.282;22.494;2023-11-25T01:24:10;96806.78;;;-0.22;100.00
75650;BME280;64245;51.282;22.494;2023-11-25T01:26:40;96813.72;;;-0.11;100.00
75650;BME280;64245;51.282;22.494;2023-11-25T01:29:06;96810.69;;;-0.07;100.00
75650;BME280;64245;51.282;22.494;2023-11-25T01:31:32;96798.69;;;-0.11;100.00
75650;BME280;64245;51.282;22.494;2023-11-25T01:33:59;96808.72;;;-0.05;100.00
75650;BME280;64245;51.282;22.494;2023-11-25T01:36:25;96804.84;;;-0.01;100.00
75650;BME280;64245;51.282;22.494;2023-11-25T01:38:52;96808.44;;;-0.02;100.00
75650;BME280;64245;51.282;22.494;2023-11-25T01:41:19;96806.47;;;0.00;100.00
75650;BME280;64245;51.282;22.494;2023-11-25T01:43:45;96804.84;;;-0.01;100.00
75650;BME280;64245;51.282;22.494;2023-11-25T01:46:11;96806.47;;;0.00;100.00
75650;BME280;64245;51.282;22.494;2023-11-25T01:48:44;96814.59;;;-0.01;100.00
75650;BME280;64245;51.282;22.494;2023-11-25T01:51:09;96805.25;;;-0.05;100.00
75650;BME280;64245;51.282;22.494;2023-11-25T01:53:36;96801.75;;;-0.15;100.00
75650;BME280;64245;51.282;22.494;2023-11-25T01:56:04;96814.16;;;-0.06;100.00
75650;BME280;64245;51.282;22.494;2023-11-25T01:58:30;96811.50;;;-0.06;100.00
75650;BME280;64245;51.282;22.494;2023-11-25T02:00:56;96809.13;;;-0.09;100.00
75650;BME280;64245;51.282;22.494;2023-11-25T02:03:23;96798.97;;;-0.14;100.00
75650;BME280;64245;51.282;22.494;2023-11-25T02:05:49;96804.25;;;-0.14;100.00
75650;BME280;64245;51.282;22.494;2023-11-25T02:08:15;96792.03;;;-0.24;100.00
75650;BME280;64245;51.282;22.494;2023-11-25T02:10:40;96798.25;;;-0.35;100.00
75650;BME280;64245;51.282;22.494;2023-11-25T02:13:06;96792.00;;;-0.34;100.00
75650;BME280;64245;51.282;22.494;2023-11-25T02:15:36;96783.09;;;-0.43;100.00
75650;BME280;64245;51.282;22.494;2023-11-25T02:18:02;96794.09;;;-0.38;100.00
75650;BME280;64245;51.282;22.494;2023-11-25T02:20:35;96795.91;;;-0.48;100.00
75650;BME280;64245;51.282;22.494;2023-11-25T02:23:02;96800.66;;;-0.42;100.00
75650;BME280;64245;51.282;22.494;2023-11-25T02:25:28;96796.16;;;-0.51;100.00
75650;BME280;64245;51.282;22.494;2023-11-25T02:27:55;96796.56;;;-0.55;100.00
75650;BME280;64245;51.282;22.494;2023-11-25T02:30:21;96803.53;;;-0.64;100.00
75650;BME280;64245;51.282;22.494;2023-11-25T02:32:50;96786.41;;;-0.70;100.00
75650;BME280;64245;51.282;22.494;2023-11-25T02:35:16;96793.78;;;-0.63;100.00
75650;BME280;64245;51.282;22.494;2023-11-25T02:37:44;96789.75;;;-0.77;100.00
75650;BME280;64245;51.282;22.494;2023-11-25T02:40:12;96803.66;;;-0.65;100.00
75650;BME280;64245;51.282;22.494;2023-11-25T02:42:45;96797.69;;;-0.67;100.00
75650;BME280;64245;51.282;22.494;2023-11-25T02:45:18;96806.19;;;-0.64;100.00
75650;BME280;64245;51.282;22.494;2023-11-25T02:47:51;96798.25;;;-0.64;100.00
75650;BME280;64245;51.282;22.494;2023-11-25T02:50:17;96801.59;;;-0.62;100.00
75650;BME280;64245;51.282;22.494;2023-11-25T02:52:44;96798.81;;;-0.60;100.00
75650;BME280;64245;51.282;22.494;2023-11-25T02:55:11;96808.13;;;-0.56;100.00
75650;BME280;64245;51.282;22.494;2023-11-25T02:57:41;96802.16;;;-0.58;100.00
75650;BME280;64245;51.282;22.494;2023-11-25T03:00:15;96806.75;;;-0.51;100.00
75650;BME280;64245;51.282;22.494;2023-11-25T03:02:57;96798.50;;;-0.67;100.00
75650;BME280;64245;51.282;22.494;2023-11-25T03:05:32;96810.75;;;-0.56;100.00
75650;BME280;64245;51.282;22.494;2023-11-25T03:07:58;96808.28;;;-0.58;100.00
75650;BME280;64245;51.282;22.494;2023-11-25T03:10:26;96807.56;;;-0.50;100.00
75650;BME280;64245;51.282;22.494;2023-11-25T03:12:53;96808.56;;;-0.51;100.00
75650;BME280;64245;51.282;22.494;2023-11-25T03:15:19;96806.88;;;-0.52;100.00
75650;BME280;64245;51.282;22.494;2023-11-25T03:17:45;96798.38;;;-0.65;100.00
75650;BME280;64245;51.282;22.494;2023-11-25T03:20:12;96790.59;;;-0.67;100.00
75650;BME280;64245;51.282;22.494;2023-11-25T03:22:38;96787.25;;;-0.69;100.00
75650;BME280;64245;51.282;22.494;2023-11-25T03:25:05;96798.25;;;-0.54;100.00
75650;BME280;64245;51.282;22.494;2023-11-25T03:27:34;96802.72;;;-0.45;100.00
75650;BME280;64245;51.282;22.494;2023-11-25T03:30:02;96797.03;;;-0.41;100.00
75650;BME280;64245;51.282;22.494;2023-11-25T03:32:29;96795.34;;;-0.51;100.00
75650;BME280;64245;51.282;22.494;2023-11-25T03:34:57;96799.06;;;-0.54;100.00
75650;BME280;64245;51.282;22.494;2023-11-25T03:37:23;96792.97;;;-0.45;100.00
75650;BME280;64245;51.282;22.494;2023-11-25T03:39:49;96797.56;;;-0.37;100.00
75650;BME280;64245;51.282;22.494;2023-11-25T03:42:17;96806.63;;;-0.40;100.00
75650;BME280;64245;51.282;22.494;2023-11-25T03:44:48;96804.97;;;-0.41;100.00
75650;BME280;64245;51.282;22.494;2023-11-25T03:47:14;96790.19;;;-0.53;100.00
75650;BME280;64245;51.282;22.494;2023-11-25T03:49:40;96790.31;;;-0.54;100.00
75650;BME280;64245;51.282;22.494;2023-11-25T03:52:06;96781.81;;;-0.67;100.00
75650;BME280;64245;51.282;22.494;2023-11-25T03:54:32;96788.91;;;-0.78;100.00
75650;BME280;64245;51.282;22.494;2023-11-25T03:57:01;96794.84;;;-0.85;100.00
75650;BME280;64245;51.282;22.494;2023-11-25T03:59:27;96790.66;;;-0.97;100.00
75650;BME280;64245;51.282;22.494;2023-11-25T04:01:53;96796.84;;;-1.18;100.00
75650;BME280;64245;51.282;22.494;2023-11-25T04:04:18;96800.41;;;-1.28;100.00
75650;BME280;64245;51.282;22.494;2023-11-25T04:06:47;96809.06;;;-1.47;100.00
75650;BME280;64245;51.282;22.494;2023-11-25T04:09:12;96801.66;;;-1.53;100.00
75650;BME280;64245;51.282;22.494;2023-11-25T04:11:42;96800.03;;;-1.54;100.00
75650;BME280;64245;51.282;22.494;2023-11-25T04:14:08;96800.59;;;-1.71;100.00
75650;BME280;64245;51.282;22.494;2023-11-25T04:16:34;96800.91;;;-1.65;100.00
75650;BME280;64245;51.282;22.494;2023-11-25T04:19:00;96804.91;;;-1.70;100.00
75650;BME280;64245;51.282;22.494;2023-11-25T04:21:26;96804.59;;;-1.77;100.00
75650;BME280;64245;51.282;22.494;2023-11-25T04:23:55;96808.13;;;-1.67;100.00
75650;BME280;64245;51.282;22.494;2023-11-25T04:26:22;96801.97;;;-1.77;100.00
75650;BME280;64245;51.282;22.494;2023-11-25T04:28:48;96796.94;;;-1.80;100.00
75650;BME280;64245;51.282;22.494;2023-11-25T04:31:14;96803.06;;;-1.80;100.00
75650;BME280;64245;51.282;22.494;2023-11-25T04:33:40;96802.13;;;-1.69;100.00
75650;BME280;64245;51.282;22.494;2023-11-25T04:36:07;96808.78;;;-1.75;100.00
75650;BME280;64245;51.282;22.494;2023-11-25T04:38:33;96810.50;;;-1.85;100.00
75650;BME280;64245;51.282;22.494;2023-11-25T04:40:59;96816.56;;;-1.94;100.00
75650;BME280;64245;51.282;22.494;2023-11-25T04:43:24;96806.44;;;-2.10;100.00
75650;BME280;64245;51.282;22.494;2023-11-25T04:45:50;96817.41;;;-2.14;100.00
75650;BME280;64245;51.282;22.494;2023-11-25T04:48:16;96826.03;;;-2.12;100.00
75650;BME280;64245;51.282;22.494;2023-11-25T04:50:42;96802.63;;;-2.37;100.00
75650;BME280;64245;51.282;22.494;2023-11-25T04:53:10;96821.91;;;-2.37;100.00
75650;BME280;64245;51.282;22.494;2023-11-25T04:55:37;96826.59;;;-2.40;100.00
75650;BME280;64245;51.282;22.494;2023-11-25T04:58:03;96825.41;;;-2.48;100.00
75650;BME280;64245;51.282;22.494;2023-11-25T05:00:29;96838.59;;;-2.48;100.00
75650;BME280;64245;51.282;22.494;2023-11-25T05:02:55;96843.72;;;-2.35;100.00
75650;BME280;64245;51.282;22.494;2023-11-25T05:05:21;96835.72;;;-2.45;100.00
75650;BME280;64245;51.282;22.494;2023-11-25T05:07:48;96846.59;;;-2.38;100.00
75650;BME280;64245;51.282;22.494;2023-11-25T05:10:14;96852.34;;;-2.33;100.00
75650;BME280;64245;51.282;22.494;2023-11-25T05:12:40;96861.03;;;-2.21;100.00
75650;BME280;64245;51.282;22.494;2023-11-25T05:15:10;96856.84;;;-2.24;100.00
75650;BME280;64245;51.282;22.494;2023-11-25T05:17:37;96858.75;;;-2.15;100.00
75650;BME280;64245;51.282;22.494;2023-11-25T05:20:04;96862.03;;;-2.01;100.00
75650;BME280;64245;51.282;22.494;2023-11-25T05:22:34;96869.34;;;-2.05;100.00
75650;BME280;64245;51.282;22.494;2023-11-25T05:25:00;96873.91;;;-2.07;100.00
75650;BME280;64245;51.282;22.494;2023-11-25T05:27:26;96872.88;;;-2.16;100.00
75650;BME280;64245;51.282;22.494;2023-11-25T05:29:52;96873.88;;;-2.28;100.00
75650;BME280;64245;51.282;22.494;2023-11-25T05:32:18;96867.03;;;-2.19;100.00
75650;BME280;64245;51.282;22.494;2023-11-25T05:34:44;96856.47;;;-2.19;100.00
75650;BME280;64245;51.282;22.494;2023-11-25T05:37:10;96868.22;;;-2.23;100.00
75650;BME280;64245;51.282;22.494;2023-11-25T05:39:36;96865.41;;;-2.31;100.00
75650;BME280;64245;51.282;22.494;2023-11-25T05:42:02;96838.16;;;-2.64;100.00
75650;BME280;64245;51.282;22.494;2023-11-25T05:44:30;96871.88;;;-2.47;100.00
75650;BME280;64245;51.282;22.494;2023-11-25T05:46:57;96868.16;;;-2.44;100.00
75650;BME280;64245;51.282;22.494;2023-11-25T05:49:23;96886.28;;;-2.51;100.00
75650;BME280;64245;51.282;22.494;2023-11-25T05:51:49;96893.59;;;-2.54;100.00
75650;BME280;64245;51.282;22.494;2023-11-25T05:54:17;96889.63;;;-2.60;100.00
75650;BME280;64245;51.282;22.494;2023-11-25T05:56:46;96887.16;;;-2.72;100.00
75650;BME280;64245;51.282;22.494;2023-11-25T05:59:15;96887.69;;;-2.47;100.00
75650;BME280;64245;51.282;22.494;2023-11-25T06:01:41;96883.69;;;-2.30;100.00
75650;BME280;64245;51.282;22.494;2023-11-25T06:04:08;96889.13;;;-2.31;100.00
75650;BME280;64245;51.282;22.494;2023-11-25T06:06:33;96879.78;;;-2.03;100.00
75650;BME280;64245;51.282;22.494;2023-11-25T06:08:59;96888.47;;;-1.92;100.00
75650;BME280;64245;51.282;22.494;2023-11-25T06:11:26;96881.97;;;-1.88;100.00
75650;BME280;64245;51.282;22.494;2023-11-25T06:13:53;96885.13;;;-1.73;100.00
75650;BME280;64245;51.282;22.494;2023-11-25T06:16:22;96882.97;;;-1.68;100.00
75650;BME280;64245;51.282;22.494;2023-11-25T06:18:48;96895.16;;;-1.56;100.00
75650;BME280;64245;51.282;22.494;2023-11-25T06:21:15;96898.22;;;-1.30;100.00
75650;BME280;64245;51.282;22.494;2023-11-25T06:23:41;96899.72;;;-1.16;100.00
75650;BME280;64245;51.282;22.494;2023-11-25T06:26:09;96883.69;;;-1.15;100.00
75650;BME280;64245;51.282;22.494;2023-11-25T06:28:47;96884.41;;;-1.13;100.00
75650;BME280;64245;51.282;22.494;2023-11-25T06:31:14;96909.53;;;-0.97;100.00
75650;BME280;64245;51.282;22.494;2023-11-25T06:33:40;96905.25;;;-0.89;100.00
75650;BME280;64245;51.282;22.494;2023-11-25T06:36:07;96908.91;;;-0.80;100.00
75650;BME280;64245;51.282;22.494;2023-11-25T06:38:33;96906.28;;;-0.71;100.00
75650;BME280;64245;51.282;22.494;2023-11-25T06:40:59;96917.19;;;-0.64;100.00
75650;BME280;64245;51.282;22.494;2023-11-25T06:43:27;96915.06;;;-0.70;100.00
75650;BME280;64245;51.282;22.494;2023-11-25T06:45:53;96918.28;;;-0.57;100.00
75650;BME280;64245;51.282;22.494;2023-11-25T06:48:20;96930.53;;;-0.56;100.00
75650;BME280;64245;51.282;22.494;2023-11-25T06:50:47;96930.00;;;-0.59;100.00
75650;BME280;64245;51.282;22.494;2023-11-25T06:53:12;96942.63;;;-0.63;100.00
75650;BME280;64245;51.282;22.494;2023-11-25T06:55:38;96930.75;;;-0.78;100.00
75650;BME280;64245;51.282;22.494;2023-11-25T06:58:11;96948.75;;;-0.62;100.00
75650;BME280;64245;51.282;22.494;2023-11-25T07:00:40;96946.81;;;-0.60;100.00
75650;BME280;64245;51.282;22.494;2023-11-25T07:03:07;96949.59;;;-0.62;100.00
75650;BME280;64245;51.282;22.494;2023-11-25T07:05:34;96937.72;;;-0.77;100.00
75650;BME280;64245;51.282;22.494;2023-11-25T07:08:04;96948.69;;;-0.72;100.00
75650;BME280;64245;51.282;22.494;2023-11-25T07:10:32;96960.81;;;-0.70;100.00
75650;BME280;64245;51.282;22.494;2023-11-25T07:13:04;96956.84;;;-0.54;100.00
75650;BME280;64245;51.282;22.494;2023-11-25T07:15:31;96958.53;;;-0.53;100.00
75650;BME280;64245;51.282;22.494;2023-11-25T07:17:57;96970.78;;;-0.52;100.00
75650;BME280;64245;51.282;22.494;2023-11-25T07:20:23;96965.94;;;-0.47;100.00
75650;BME280;64245;51.282;22.494;2023-11-25T07:22:49;96975.94;;;-0.51;100.00
75650;BME280;64245;51.282;22.494;2023-11-25T07:25:15;96966.31;;;-0.52;100.00
75650;BME280;64245;51.282;22.494;2023-11-25T07:27:42;96977.47;;;-0.48;100.00
75650;BME280;64245;51.282;22.494;2023-11-25T07:30:11;96984.38;;;-0.57;100.00
75650;BME280;64245;51.282;22.494;2023-11-25T07:32:37;96985.78;;;-0.53;100.00
75650;BME280;64245;51.282;22.494;2023-11-25T07:35:07;96996.56;;;-0.45;100.00
75650;BME280;64245;51.282;22.494;2023-11-25T07:37:34;96987.91;;;-0.47;100.00
75650;BME280;64245;51.282;22.494;2023-11-25T07:40:01;96991.72;;;-0.40;100.00
75650;BME280;64245;51.282;22.494;2023-11-25T07:42:31;97003.72;;;-0.26;100.00
75650;BME280;64245;51.282;22.494;2023-11-25T07:44:57;96996.38;;;-0.22;100.00
75650;BME280;64245;51.282;22.494;2023-11-25T07:47:23;97006.81;;;-0.21;100.00
75650;BME280;64245;51.282;22.494;2023-11-25T07:49:49;96990.13;;;-0.12;100.00
75650;BME280;64245;51.282;22.494;2023-11-25T07:52:15;97002.81;;;-0.06;100.00
75650;BME280;64245;51.282;22.494;2023-11-25T07:54:41;96996.56;;;-0.05;100.00
75650;BME280;64245;51.282;22.494;2023-11-25T07:57:08;96984.94;;;-0.23;100.00
75650;BME280;64245;51.282;22.494;2023-11-25T07:59:34;96997.88;;;-0.29;100.00
75650;BME280;64245;51.282;22.494;2023-11-25T08:02:00;97007.09;;;-0.24;100.00
75650;BME280;64245;51.282;22.494;2023-11-25T08:04:28;97010.84;;;-0.17;100.00
75650;BME280;64245;51.282;22.494;2023-11-25T08:06:55;97011.41;;;-0.23;100.00
75650;BME280;64245;51.282;22.494;2023-11-25T08:09:21;97002.31;;;-0.30;100.00
75650;BME280;64245;51.282;22.494;2023-11-25T08:11:49;97021.41;;;-0.17;100.00
75650;BME280;64245;51.282;22.494;2023-11-25T08:14:14;97026.44;;;-0.14;100.00
75650;BME280;64245;51.282;22.494;2023-11-25T08:16:40;97027.91;;;0.00;100.00
75650;BME280;64245;51.282;22.494;2023-11-25T08:19:06;97013.13;;;-0.03;100.00
75650;BME280;64245;51.282;22.494;2023-11-25T08:21:32;97020.50;;;0.04;100.00
75650;BME280;64245;51.282;22.494;2023-11-25T08:23:58;97029.47;;;0.12;100.00
75650;BME280;64245;51.282;22.494;2023-11-25T08:26:26;97031.16;;;0.23;100.00
75650;BME280;64245;51.282;22.494;2023-11-25T08:28:52;97034.38;;;0.26;100.00
75650;BME280;64245;51.282;22.494;2023-11-25T08:31:19;97037.19;;;0.34;100.00
75650;BME280;64245;51.282;22.494;2023-11-25T08:33:45;97027.97;;;0.29;100.00
75650;BME280;64245;51.282;22.494;2023-11-25T08:36:12;97034.84;;;0.51;100.00
75650;BME280;64245;51.282;22.494;2023-11-25T08:38:39;97044.03;;;0.37;100.00
75650;BME280;64245;51.282;22.494;2023-11-25T08:41:05;97046.09;;;0.33;100.00
75650;BME280;64245;51.282;22.494;2023-11-25T08:43:39;97040.06;;;0.22;100.00
75650;BME280;64245;51.282;22.494;2023-11-25T08:46:12;97048.84;;;0.22;100.00
75650;BME280;64245;51.282;22.494;2023-11-25T08:48:38;97058.47;;;0.23;100.00
75650;BME280;64245;51.282;22.494;2023-11-25T08:51:08;97061.84;;;0.35;100.00
75650;BME280;64245;51.282;22.494;2023-11-25T08:53:39;97059.91;;;0.37;100.00
75650;BME280;64245;51.282;22.494;2023-11-25T08:56:05;97066.75;;;0.49;100.00
75650;BME280;64245;51.282;22.494;2023-11-25T08:58:32;97069.22;;;0.41;100.00
75650;BME280;64245;51.282;22.494;2023-11-25T09:00:58;97073.16;;;0.47;100.00
75650;BME280;64245;51.282;22.494;2023-11-25T09:03:24;97070.50;;;0.37;100.00
75650;BME280;64245;51.282;22.494;2023-11-25T09:05:50;97070.19;;;0.40;100.00
75650;BME280;64245;51.282;22.494;2023-11-25T09:08:16;97071.88;;;0.41;100.00
75650;BME280;64245;51.282;22.494;2023-11-25T09:10:43;97076.91;;;0.44;100.00
75650;BME280;64245;51.282;22.494;2023-11-25T09:13:09;97081.22;;;0.45;100.00
75650;BME280;64245;51.282;22.494;2023-11-25T09:15:36;97064.63;;;0.43;100.00
75650;BME280;64245;51.282;22.494;2023-11-25T09:18:02;97060.75;;;0.38;100.00
75650;BME280;64245;51.282;22.494;2023-11-25T09:20:28;97070.22;;;0.59;100.00
75650;BME280;64245;51.282;22.494;2023-11-25T09:22:54;97080.69;;;0.51;100.00
75650;BME280;64245;51.282;22.494;2023-11-25T09:25:20;97075.34;;;0.42;100.00
75650;BME280;64245;51.282;22.494;2023-11-25T09:27:47;97068.34;;;0.21;100.00
75650;BME280;64245;51.282;22.494;2023-11-25T09:30:14;97066.97;;;0.27;100.00
75650;BME280;64245;51.282;22.494;2023-11-25T09:32:41;97078.41;;;0.27;100.00
75650;BME280;64245;51.282;22.494;2023-11-25T09:35:08;97078.31;;;0.48;100.00
75650;BME280;64245;51.282;22.494;2023-11-25T09:37:40;97068.81;;;0.46;100.00
75650;BME280;64245;51.282;22.494;2023-11-25T09:40:06;97062.41;;;0.58;100.00
75650;BME280;64245;51.282;22.494;2023-11-25T09:42:33;97087.00;;;0.79;100.00
75650;BME280;64245;51.282;22.494;2023-11-25T09:44:59;97076.69;;;0.76;100.00
75650;BME280;64245;51.282;22.494;2023-11-25T09:47:25;97092.56;;;0.66;100.00
75650;BME280;64245;51.282;22.494;2023-11-25T09:49:51;97094.19;;;0.58;100.00
75650;BME280;64245;51.282;22.494;2023-11-25T09:52:19;97087.94;;;0.49;100.00
75650;BME280;64245;51.282;22.494;2023-11-25T09:54:46;97090.66;;;0.28;100.00
75650;BME280;64245;51.282;22.494;2023-11-25T09:57:16;97090.66;;;0.19;100.00
75650;BME280;64245;51.282;22.494;2023-11-25T09:59:44;97095.19;;;0.07;100.00
75650;BME280;64245;51.282;22.494;2023-11-25T10:02:10;97097.25;;;0.04;100.00
75650;BME280;64245;51.282;22.494;2023-11-25T10:04:39;97105.63;;;0.09;100.00
75650;BME280;64245;51.282;22.494;2023-11-25T10:07:05;97101.75;;;0.13;100.00
75650;BME280;64245;51.282;22.494;2023-11-25T10:09:39;97116.78;;;0.12;100.00
75650;BME280;64245;51.282;22.494;2023-11-25T10:12:08;97113.75;;;0.17;100.00
75650;BME280;64245;51.282;22.494;2023-11-25T10:14:42;97107.19;;;0.11;100.00
75650;BME280;64245;51.282;22.494;2023-11-25T10:17:17;97121.63;;;0.07;100.00
75650;BME280;64245;51.282;22.494;2023-11-25T10:19:45;97129.91;;;0.14;100.00
75650;BME280;64245;51.282;22.494;2023-11-25T10:22:12;97116.34;;;0.07;100.00
75650;BME280;64245;51.282;22.494;2023-11-25T10:24:48;97112.41;;;0.02;100.00
75650;BME280;64245;51.282;22.494;2023-11-25T10:27:16;97133.97;;;0.18;100.00
75650;BME280;64245;51.282;22.494;2023-11-25T10:29:42;97133.06;;;0.08;100.00
75650;BME280;64245;51.282;22.494;2023-11-25T10:32:09;97121.97;;;0.14;100.00
75650;BME280;64245;51.282;22.494;2023-11-25T10:34:35;97132.91;;;0.40;100.00
75650;BME280;64245;51.282;22.494;2023-11-25T10:37:04;97130.47;;;0.57;100.00
75650;BME280;64245;51.282;22.494;2023-11-25T10:39:34;97128.00;;;0.75;100.00
75650;BME280;64245;51.282;22.494;2023-11-25T10:42:04;97129.91;;;0.54;100.00
75650;BME280;64245;51.282;22.494;2023-11-25T10:44:42;97120.22;;;0.43;100.00
75650;BME280;64245;51.282;22.494;2023-11-25T10:47:08;97120.63;;;0.39;100.00
75650;BME280;64245;51.282;22.494;2023-11-25T10:49:58;97133.78;;;0.50;100.00
75650;BME280;64245;51.282;22.494;2023-11-25T10:52:31;97138.69;;;0.64;100.00
75650;BME280;64245;51.282;22.494;2023-11-25T10:54:58;97128.63;;;0.48;100.00
75650;BME280;64245;51.282;22.494;2023-11-25T10:57:25;97140.50;;;0.54;100.00
75650;BME280;64245;51.282;22.494;2023-11-25T10:59:56;97123.19;;;0.59;100.00
75650;BME280;64245;51.282;22.494;2023-11-25T11:05:12;97146.56;;;0.35;100.00
75650;BME280;64245;51.282;22.494;2023-11-25T11:07:45;97131.22;;;0.39;100.00
75650;BME280;64245;51.282;22.494;2023-11-25T11:10:17;97145.66;;;0.55;100.00
75650;BME280;64245;51.282;22.494;2023-11-25T11:12:57;97149.00;;;0.57;100.00
75650;BME280;64245;51.282;22.494;2023-11-25T11:15:25;97146.38;;;0.57;100.00
75650;BME280;64245;51.282;22.494;2023-11-25T11:20:36;97152.78;;;0.64;100.00
75650;BME280;64245;51.282;22.494;2023-11-25T11:23:04;97145.88;;;0.43;100.00
75650;BME280;64245;51.282;22.494;2023-11-25T11:25:40;97158.25;;;0.32;100.00
75650;BME280;64245;51.282;22.494;2023-11-25T11:28:22;97159.09;;;0.33;100.00
75650;BME280;64245;51.282;22.494;2023-11-25T11:34:27;97144.13;;;0.22;100.00
75650;BME280;64245;51.282;22.494;2023-11-25T11:36:54;97146.00;;;0.31;100.00
75650;BME280;64245;51.282;22.494;2023-11-25T11:39:40;97152.56;;;0.37;100.00
75650;BME280;64245;51.282;22.494;2023-11-25T11:42:27;97154.06;;;0.40;100.00
75650;BME280;64245;51.282;22.494;2023-11-25T11:45:05;97162.34;;;0.46;100.00
75650;BME280;64245;51.282;22.494;2023-11-25T11:47:46;97158.84;;;0.46;100.00
75650;BME280;64245;51.282;22.494;2023-11-25T11:50:16;97160.41;;;0.58;100.00
75650;BME280;64245;51.282;22.494;2023-11-25T11:52:47;97152.56;;;0.37;100.00
75650;BME280;64245;51.282;22.494;2023-11-25T11:58:10;97170.13;;;0.38;100.00
75650;BME280;64245;51.282;22.494;2023-11-25T12:03:28;97163.69;;;0.41;100.00
75650;BME280;64245;51.282;22.494;2023-11-25T12:05:55;97163.16;;;0.37;100.00
75650;BME280;64245;51.282;22.494;2023-11-25T12:08:22;97162.72;;;0.42;100.00
75650;BME280;64245;51.282;22.494;2023-11-25T12:10:49;97173.19;;;0.43;100.00
75650;BME280;64245;51.282;22.494;2023-11-25T12:13:28;97170.41;;;0.45;100.00
75650;BME280;64245;51.282;22.494;2023-11-25T12:15:55;97176.47;;;0.26;100.00
75650;BME280;64245;51.282;22.494;2023-11-25T12:18:32;97166.47;;;0.29;100.00
75650;BME280;64245;51.282;22.494;2023-11-25T12:20:59;97169.50;;;0.25;100.00
75650;BME280;64245;51.282;22.494;2023-11-25T12:23:30;97174.59;;;0.38;100.00
75650;BME280;64245;51.282;22.494;2023-11-25T12:25:57;97167.69;;;0.25;100.00
75650;BME280;64245;51.282;22.494;2023-11-25T12:28:23;97178.16;;;0.27;100.00
75650;BME280;64245;51.282;22.494;2023-11-25T12:30:50;97178.16;;;0.27;100.00
75650;BME280;64245;51.282;22.494;2023-11-25T12:33:19;97183.13;;;0.20;100.00
75650;BME280;64245;51.282;22.494;2023-11-25T12:35:46;97182.16;;;0.21;100.00
75650;BME280;64245;51.282;22.494;2023-11-25T12:38:13;97190.78;;;0.23;100.00
75650;BME280;64245;51.282;22.494;2023-11-25T12:40:41;97171.41;;;0.13;100.00
75650;BME280;64245;51.282;22.494;2023-11-25T12:43:09;97181.84;;;0.15;100.00
75650;BME280;64245;51.282;22.494;2023-11-25T12:45:40;97190.38;;;0.18;100.00
75650;BME280;64245;51.282;22.494;2023-11-25T12:48:08;97190.59;;;0.36;100.00
75650;BME280;64245;51.282;22.494;2023-11-25T12:51:01;97191.25;;;0.28;100.00
75650;BME280;64245;51.282;22.494;2023-11-25T12:53:33;97185.75;;;0.20;100.00
75650;BME280;64245;51.282;22.494;2023-11-25T12:56:00;97195.38;;;-0.09;100.00
75650;BME280;64245;51.282;22.494;2023-11-25T12:58:27;97190.72;;;-0.38;100.00
75650;BME280;64245;51.282;22.494;2023-11-25T13:00:54;97188.66;;;-0.34;100.00